createdAt,value
2022-10-18T00:01:18.731Z,79.85
2022-10-18T00:06:22.006Z,80.00
2022-10-18T00:11:25.560Z,80.06
2022-10-18T00:16:29.071Z,80.20
2022-10-18T00:21:32.704Z,80.22
2022-10-18T00:26:36.536Z,80.32
2022-10-18T00:31:39.937Z,80.31
2022-10-18T00:36:44.458Z,80.31
2022-10-18T00:41:49.058Z,80.36
2022-10-18T00:46:58.252Z,80.38
2022-10-18T00:52:18.166Z,80.60
2022-10-18T00:57:21.949Z,80.71
2022-10-18T01:02:26.764Z,80.79
2022-10-18T01:07:41.999Z,80.78
2022-10-18T01:13:15.647Z,81.06
2022-10-18T01:18:52.142Z,81.32
2022-10-18T01:24:18.755Z,81.56
2022-10-18T01:29:52.426Z,81.59
2022-10-18T01:35:11.710Z,81.54
2022-10-18T01:40:20.852Z,81.43
2022-10-18T01:45:26.772Z,81.48
2022-10-18T01:50:33.825Z,81.75
2022-10-18T01:55:57.830Z,81.92
2022-10-18T02:06:29.782Z,81.97
2022-10-18T02:11:36.225Z,82.04
2022-10-18T02:16:45.678Z,82.10
2022-10-18T02:21:52.123Z,82.08
2022-10-18T02:26:55.577Z,82.04
2022-10-18T02:32:20.366Z,82.32
2022-10-18T02:42:46.985Z,82.64
2022-10-18T02:47:50.295Z,82.76
2022-10-18T02:52:53.550Z,82.64
2022-10-18T02:57:56.817Z,82.65
2022-10-18T03:03:00.130Z,82.68
2022-10-18T03:08:03.852Z,82.75
2022-10-18T03:13:07.058Z,82.89
2022-10-18T03:18:10.930Z,83.06
2022-10-18T03:23:14.191Z,83.25
2022-10-18T03:28:17.446Z,83.39
2022-10-18T03:33:21.053Z,83.39
2022-10-18T03:38:24.447Z,83.54
2022-10-18T03:43:27.745Z,83.53
2022-10-18T03:48:31.190Z,83.63
2022-10-18T03:53:34.608Z,83.65
2022-10-18T03:58:37.894Z,83.61
2022-10-18T04:03:41.196Z,83.59
2022-10-18T04:08:44.620Z,83.65
2022-10-18T04:13:47.951Z,83.74
2022-10-18T04:18:51.234Z,84.04
2022-10-18T04:23:54.549Z,84.15
2022-10-18T04:28:58.082Z,84.16
2022-10-18T04:34:02.706Z,84.07
2022-10-18T04:39:06.324Z,84.01
2022-10-18T04:44:10.056Z,83.94
2022-10-18T04:49:13.466Z,84.00
2022-10-18T04:54:16.882Z,84.04
2022-10-18T04:59:20.881Z,84.02
2022-10-18T05:04:24.322Z,84.15
2022-10-18T05:09:27.831Z,84.23
2022-10-18T05:14:31.148Z,84.13
2022-10-18T05:19:34.867Z,84.04
2022-10-18T05:24:38.281Z,83.96
2022-10-18T05:29:41.799Z,83.89
2022-10-18T05:34:45.138Z,83.57
2022-10-18T05:39:48.489Z,83.63
2022-10-18T05:44:51.742Z,83.79
2022-10-18T05:49:55.346Z,83.99
2022-10-18T05:54:59.273Z,84.15
2022-10-18T06:00:03.096Z,84.26
2022-10-18T06:05:06.613Z,84.14
2022-10-18T06:10:10.864Z,84.15
2022-10-18T06:15:14.464Z,84.21
2022-10-18T06:20:18.119Z,84.14
2022-10-18T06:25:21.396Z,84.11
2022-10-18T06:30:24.979Z,84.11
2022-10-18T06:35:28.987Z,84.18
2022-10-18T06:40:38.193Z,84.17
2022-10-18T06:45:41.609Z,84.18
2022-10-18T06:51:02.020Z,84.08
2022-10-18T06:56:10.612Z,84.06
2022-10-18T07:01:17.001Z,84.03
2022-10-18T07:06:21.123Z,84.08
2022-10-18T07:11:27.551Z,84.07
2022-10-18T07:16:35.065Z,84.00
2022-10-18T07:21:38.478Z,84.04
2022-10-18T07:26:42.770Z,84.07
2022-10-18T07:31:46.029Z,84.12
2022-10-18T07:36:49.449Z,84.11
2022-10-18T07:41:52.860Z,84.18
2022-10-18T07:46:56.123Z,84.21
2022-10-18T07:51:59.496Z,84.29
2022-10-18T07:57:05.343Z,84.36
2022-10-18T08:02:09.798Z,84.44
2022-10-18T08:07:13.610Z,84.44
2022-10-18T08:12:16.915Z,84.56
2022-10-18T08:17:20.230Z,84.64
2022-10-18T08:22:23.638Z,84.75
2022-10-18T08:27:27.065Z,84.88
2022-10-18T08:32:30.674Z,84.92
2022-10-18T08:37:34.881Z,84.89
2022-10-18T08:43:06.068Z,84.97
2022-10-18T08:48:25.947Z,84.89
2022-10-18T08:54:56.718Z,84.93
2022-10-18T09:00:06.493Z,84.98
2022-10-18T09:05:56.817Z,84.93
2022-10-18T09:11:19.063Z,85.12
2022-10-18T09:17:06.405Z,85.31
2022-10-18T09:22:20.676Z,85.31
2022-10-18T09:27:38.291Z,85.19
2022-10-18T09:33:19.836Z,85.19
2022-10-18T09:38:31.073Z,85.09
2022-10-18T09:43:50.112Z,85.19
2022-10-18T09:49:14.286Z,85.06
2022-10-18T09:54:48.441Z,85.16
2022-10-18T09:59:51.959Z,85.22
2022-10-18T10:04:55.990Z,85.21
2022-10-18T10:10:20.351Z,85.08
2022-10-18T10:15:31.289Z,85.06
2022-10-18T10:20:50.583Z,85.02
2022-10-18T10:26:01.481Z,84.86
2022-10-18T10:31:25.070Z,84.81
2022-10-18T10:36:29.857Z,84.98
2022-10-18T10:41:34.415Z,85.00
2022-10-18T10:46:37.867Z,85.10
2022-10-18T10:51:41.461Z,85.22
2022-10-18T10:57:19.303Z,85.26
2022-10-18T11:02:34.368Z,85.31
2022-10-18T11:07:46.756Z,85.35
2022-10-18T11:13:02.908Z,85.31
2022-10-18T11:18:30.510Z,85.32
2022-10-18T11:23:38.749Z,85.36
2022-10-18T11:29:29.112Z,85.43
2022-10-18T11:35:03.174Z,85.36
2022-10-18T11:41:09.188Z,85.43
2022-10-18T11:46:44.738Z,85.57
2022-10-18T11:52:08.012Z,85.57
2022-10-18T11:57:40.307Z,85.58
2022-10-18T12:03:08.639Z,85.57
2022-10-18T12:08:19.473Z,85.47
2022-10-18T12:14:07.753Z,85.44
2022-10-18T12:19:27.631Z,85.42
2022-10-18T12:24:34.617Z,85.34
2022-10-18T12:29:52.723Z,85.35
2022-10-18T12:35:15.571Z,85.39
2022-10-18T12:40:43.037Z,85.50
2022-10-18T12:46:02.761Z,85.53
2022-10-18T12:51:19.462Z,85.61
2022-10-18T12:56:28.613Z,85.71
2022-10-18T13:01:52.174Z,85.65
2022-10-18T13:06:58.588Z,85.65
2022-10-18T13:12:10.836Z,85.60
2022-10-18T13:17:45.498Z,85.61
2022-10-18T13:23:23.782Z,85.60
2022-10-18T13:28:36.049Z,85.70
2022-10-18T13:33:42.083Z,85.73
2022-10-18T13:38:58.448Z,85.79
2022-10-18T13:44:24.159Z,85.76
2022-10-18T13:49:39.223Z,85.85
2022-10-18T13:55:39.258Z,85.99
2022-10-18T14:01:14.681Z,86.01
2022-10-18T14:06:29.293Z,86.00
2022-10-18T14:11:46.352Z,85.99
2022-10-18T14:17:15.413Z,85.96
2022-10-18T14:22:47.036Z,85.92
2022-10-18T14:28:12.229Z,85.92
2022-10-18T14:33:37.270Z,86.00
2022-10-18T14:39:02.938Z,86.11
2022-10-18T14:44:19.628Z,85.93
2022-10-18T14:49:23.110Z,86.08
2022-10-18T14:54:33.067Z,86.22
2022-10-18T14:59:53.942Z,86.28
2022-10-18T15:05:31.145Z,86.43
2022-10-18T15:10:36.050Z,86.49
2022-10-18T15:15:40.950Z,86.57
2022-10-18T15:20:44.565Z,86.63
2022-10-18T15:25:48.283Z,86.71
2022-10-18T15:30:51.915Z,86.71
2022-10-18T15:35:55.519Z,86.79
2022-10-18T15:40:59.187Z,86.79
2022-10-18T15:46:06.803Z,86.80
2022-10-18T15:51:48.231Z,86.93
2022-10-18T15:56:51.564Z,86.88
2022-10-18T16:01:55.678Z,86.93
2022-10-18T16:07:00.522Z,86.93
2022-10-18T16:12:05.839Z,86.94
2022-10-18T16:17:17.612Z,87.00
2022-10-18T16:22:20.914Z,87.00
2022-10-18T16:27:25.289Z,87.01
2022-10-18T16:32:28.642Z,86.99
2022-10-18T16:37:31.992Z,87.07
2022-10-18T16:42:35.553Z,87.21
2022-10-18T16:47:39.047Z,87.39
2022-10-18T16:52:43.314Z,87.49
2022-10-18T16:57:47.144Z,87.46
2022-10-18T17:02:51.007Z,87.66
2022-10-18T17:07:54.360Z,87.61
2022-10-18T17:12:57.726Z,87.60
2022-10-18T17:18:01.447Z,87.57
2022-10-18T17:23:04.863Z,87.69
2022-10-18T17:28:08.380Z,87.64
2022-10-18T17:33:13.274Z,87.78
2022-10-18T17:38:16.637Z,87.68
2022-10-18T17:43:20.232Z,87.75
2022-10-18T17:48:24.804Z,87.72
2022-10-18T17:53:29.401Z,87.82
2022-10-18T17:58:33.061Z,87.89
2022-10-18T18:03:36.560Z,87.88
2022-10-18T18:08:39.993Z,87.82
2022-10-18T18:13:43.508Z,87.74
2022-10-18T18:18:50.832Z,87.72
2022-10-18T18:23:54.843Z,87.72
2022-10-18T18:28:58.258Z,87.77
2022-10-18T18:34:02.256Z,87.75
2022-10-18T18:39:06.308Z,87.71
2022-10-18T18:44:09.713Z,87.65
2022-10-18T18:49:14.058Z,87.67
2022-10-18T18:54:17.473Z,87.60
2022-10-18T18:59:21.060Z,87.67
2022-10-18T19:04:24.305Z,87.70
2022-10-18T19:09:28.243Z,87.68
2022-10-18T19:14:31.591Z,87.57
2022-10-18T19:19:34.951Z,87.42
2022-10-18T19:24:38.365Z,86.97
2022-10-18T19:29:42.291Z,86.99
2022-10-18T19:34:45.702Z,86.87
2022-10-18T19:39:49.224Z,86.61
2022-10-18T19:44:52.841Z,86.59
2022-10-18T19:49:56.464Z,86.56
2022-10-18T19:54:59.771Z,86.37
2022-10-18T20:00:08.118Z,86.33
2022-10-18T20:05:14.078Z,86.31
2022-10-18T20:10:17.629Z,86.48
2022-10-18T20:15:20.933Z,86.41
2022-10-18T20:20:24.314Z,86.30
2022-10-18T20:25:27.628Z,86.29
2022-10-18T20:30:31.038Z,86.35
2022-10-18T20:35:34.304Z,86.25
2022-10-18T20:40:37.670Z,86.29
2022-10-18T20:45:40.980Z,86.31
2022-10-18T20:50:44.391Z,86.39
2022-10-18T20:55:47.707Z,86.49
2022-10-18T21:00:50.930Z,86.47
2022-10-18T21:05:54.257Z,86.42
2022-10-18T21:11:01.577Z,86.54
2022-10-18T21:16:07.570Z,86.56
2022-10-18T21:21:16.683Z,86.57
2022-10-18T21:26:24.517Z,86.49
2022-10-18T21:31:31.573Z,86.43
2022-10-18T21:36:37.544Z,86.33
2022-10-18T21:41:41.680Z,86.37
2022-10-18T21:46:45.360Z,86.33
2022-10-18T21:51:48.640Z,86.25
2022-10-18T21:56:52.022Z,86.18
2022-10-18T22:01:55.324Z,86.11
2022-10-18T22:06:59.756Z,86.07
2022-10-18T22:12:03.807Z,86.04
2022-10-18T22:17:07.100Z,85.99
2022-10-18T22:22:10.838Z,85.93
2022-10-18T22:27:14.243Z,85.99
2022-10-18T22:32:17.473Z,85.94
2022-10-18T22:37:20.757Z,85.92
2022-10-18T22:42:24.044Z,85.87
2022-10-18T22:47:27.482Z,85.89
2022-10-18T22:52:30.784Z,86.07
2022-10-18T22:57:34.315Z,86.21
2022-10-18T23:02:37.623Z,86.32
2022-10-18T23:07:40.933Z,86.39
2022-10-18T23:12:44.377Z,86.51
2022-10-18T23:17:50.137Z,86.64
2022-10-18T23:22:53.779Z,86.61
2022-10-18T23:27:57.880Z,86.64
2022-10-18T23:33:01.189Z,86.79
2022-10-18T23:38:04.494Z,86.96
2022-10-18T23:43:07.805Z,87.00
2022-10-18T23:48:11.317Z,87.07
2022-10-18T23:53:14.768Z,87.12
2022-10-18T23:58:18.061Z,87.15
